Terminal Aerodrome Forecast
Issued by NWS

Home | Current Version | Previous Version | Text Only | Print | Product List | Glossary On
Versions: 1 2 3 4 5 6 7 8 9 10 11 12 13 14 15
000
FTAK31 PAJN 270500
TAFAPG
TAF
PAPG 270521Z 2706/2806 VRB05KT P6SM BKN150
     FM271200 VRB04KT P6SM BCFG FEW002 BKN100
      TEMPO 2714/2717 4SM BR BKN002
     FM271900 VRB06KT P6SM BKN100
     FM280200 VRB05KT P6SM BKN060
      AMD LTD TO CLD VIS AND WIND 2706/2715=

USA.gov is the U.S. government's official web portal to all federal, state and local government web resources and services.